sensor_id;sensor_type;location;lat;lon;timestamp;temperature;humidity
8422;DHT22;4248;48.196;10.924;2023-04-08T00:01:19;5.00;45.40
8422;DHT22;4248;48.196;10.924;2023-04-08T00:03:44;5.10;45.30
8422;DHT22;4248;48.196;10.924;2023-04-08T00:06:10;5.10;45.10
8422;DHT22;4248;48.196;10.924;2023-04-08T00:08:36;5.10;45.30
8422;DHT22;4248;48.196;10.924;2023-04-08T00:11:02;5.00;45.10
8422;DHT22;4248;48.196;10.924;2023-04-08T00:13:27;5.00;45.00
8422;DHT22;4248;48.196;10.924;2023-04-08T00:15:53;5.10;45.00
8422;DHT22;4248;48.196;10.924;2023-04-08T00:18:19;5.20;44.80
8422;DHT22;4248;48.196;10.924;2023-04-08T00:20:44;5.30;44.40
8422;DHT22;4248;48.196;10.924;2023-04-08T00:23:10;5.40;43.90
8422;DHT22;4248;48.196;10.924;2023-04-08T00:25:35;5.50;43.50
8422;DHT22;4248;48.196;10.924;2023-04-08T00:28:01;5.60;43.20
8422;DHT22;4248;48.196;10.924;2023-04-08T00:30:27;5.70;43.20
8422;DHT22;4248;48.196;10.924;2023-04-08T00:32:53;5.70;43.10
8422;DHT22;4248;48.196;10.924;2023-04-08T00:35:19;5.80;43.10
8422;DHT22;4248;48.196;10.924;2023-04-08T00:37:44;5.80;43.00
8422;DHT22;4248;48.196;10.924;2023-04-08T00:40:10;5.90;42.90
8422;DHT22;4248;48.196;10.924;2023-04-08T00:42:37;6.00;42.90
8422;DHT22;4248;48.196;10.924;2023-04-08T00:45:03;6.00;42.70
8422;DHT22;4248;48.196;10.924;2023-04-08T00:47:28;6.10;42.60
8422;DHT22;4248;48.196;10.924;2023-04-08T00:49:54;6.10;42.90
8422;DHT22;4248;48.196;10.924;2023-04-08T00:52:20;6.10;43.00
8422;DHT22;4248;48.196;10.924;2023-04-08T00:54:46;6.10;43.10
8422;DHT22;4248;48.196;10.924;2023-04-08T00:57:11;6.00;43.20
8422;DHT22;4248;48.196;10.924;2023-04-08T00:59:37;6.00;43.30
8422;DHT22;4248;48.196;10.924;2023-04-08T01:02:25;5.90;43.70
8422;DHT22;4248;48.196;10.924;2023-04-08T01:05:02;5.90;43.90
8422;DHT22;4248;48.196;10.924;2023-04-08T01:07:47;5.70;44.30
8422;DHT22;4248;48.196;10.924;2023-04-08T01:10:20;5.60;44.60
8422;DHT22;4248;48.196;10.924;2023-04-08T01:12:55;5.50;44.90
8422;DHT22;4248;48.196;10.924;2023-04-08T01:15:21;5.30;45.30
8422;DHT22;4248;48.196;10.924;2023-04-08T01:17:52;5.20;45.80
8422;DHT22;4248;48.196;10.924;2023-04-08T01:20:19;5.00;46.20
8422;DHT22;4248;48.196;10.924;2023-04-08T01:25:31;4.90;46.90
8422;DHT22;4248;48.196;10.924;2023-04-08T01:28:04;4.90;47.30
8422;DHT22;4248;48.196;10.924;2023-04-08T01:30:33;4.80;47.40
8422;DHT22;4248;48.196;10.924;2023-04-08T01:33:01;4.70;47.90
8422;DHT22;4248;48.196;10.924;2023-04-08T01:35:29;4.60;48.00
8422;DHT22;4248;48.196;10.924;2023-04-08T01:37:55;4.60;48.00
8422;DHT22;4248;48.196;10.924;2023-04-08T01:40:22;4.60;48.00
8422;DHT22;4248;48.196;10.924;2023-04-08T01:42:48;4.50;47.90
8422;DHT22;4248;48.196;10.924;2023-04-08T01:45:15;4.50;47.90
8422;DHT22;4248;48.196;10.924;2023-04-08T01:47:43;4.50;47.90
8422;DHT22;4248;48.196;10.924;2023-04-08T01:50:09;4.40;47.80
8422;DHT22;4248;48.196;10.924;2023-04-08T01:52:37;4.40;47.90
8422;DHT22;4248;48.196;10.924;2023-04-08T01:55:05;4.30;47.70
8422;DHT22;4248;48.196;10.924;2023-04-08T01:57:32;4.30;47.70
8422;DHT22;4248;48.196;10.924;2023-04-08T02:00:01;4.30;47.90
8422;DHT22;4248;48.196;10.924;2023-04-08T02:02:29;4.30;48.20
8422;DHT22;4248;48.196;10.924;2023-04-08T02:04:56;4.30;48.40
8422;DHT22;4248;48.196;10.924;2023-04-08T02:07:22;4.30;48.40
8422;DHT22;4248;48.196;10.924;2023-04-08T02:09:49;4.20;48.40
8422;DHT22;4248;48.196;10.924;2023-04-08T02:12:15;4.20;48.70
8422;DHT22;4248;48.196;10.924;2023-04-08T02:14:41;4.20;48.80
8422;DHT22;4248;48.196;10.924;2023-04-08T02:17:13;4.20;48.80
8422;DHT22;4248;48.196;10.924;2023-04-08T02:22:37;4.20;48.90
8422;DHT22;4248;48.196;10.924;2023-04-08T02:25:08;4.10;49.20
8422;DHT22;4248;48.196;10.924;2023-04-08T02:27:36;4.10;49.10
8422;DHT22;4248;48.196;10.924;2023-04-08T02:30:04;4.20;49.30
8422;DHT22;4248;48.196;10.924;2023-04-08T02:32:32;4.10;49.30
8422;DHT22;4248;48.196;10.924;2023-04-08T02:35:00;4.10;49.40
8422;DHT22;4248;48.196;10.924;2023-04-08T02:37:30;4.10;49.50
8422;DHT22;4248;48.196;10.924;2023-04-08T02:39:56;4.10;49.60
8422;DHT22;4248;48.196;10.924;2023-04-08T02:42:22;4.10;49.60
8422;DHT22;4248;48.196;10.924;2023-04-08T02:44:47;4.10;49.70
8422;DHT22;4248;48.196;10.924;2023-04-08T02:47:13;4.10;49.80
8422;DHT22;4248;48.196;10.924;2023-04-08T02:49:38;4.10;49.70
8422;DHT22;4248;48.196;10.924;2023-04-08T02:52:04;4.20;49.60
8422;DHT22;4248;48.196;10.924;2023-04-08T02:54:30;4.20;49.10
8422;DHT22;4248;48.196;10.924;2023-04-08T02:56:56;4.30;48.90
8422;DHT22;4248;48.196;10.924;2023-04-08T02:59:21;4.30;48.80
8422;DHT22;4248;48.196;10.924;2023-04-08T03:01:47;4.40;48.20
8422;DHT22;4248;48.196;10.924;2023-04-08T03:04:12;4.50;47.90
8422;DHT22;4248;48.196;10.924;2023-04-08T03:06:38;4.70;49.30
8422;DHT22;4248;48.196;10.924;2023-04-08T03:09:03;4.80;48.20
8422;DHT22;4248;48.196;10.924;2023-04-08T03:11:30;4.90;47.90
8422;DHT22;4248;48.196;10.924;2023-04-08T03:13:56;5.00;47.50
8422;DHT22;4248;48.196;10.924;2023-04-08T03:16:22;5.10;47.40
8422;DHT22;4248;48.196;10.924;2023-04-08T03:18:51;5.10;47.50
8422;DHT22;4248;48.196;10.924;2023-04-08T03:21:17;5.20;47.70
8422;DHT22;4248;48.196;10.924;2023-04-08T03:23:43;5.20;48.00
8422;DHT22;4248;48.196;10.924;2023-04-08T03:26:08;5.10;48.40
8422;DHT22;4248;48.196;10.924;2023-04-08T03:28:34;5.10;48.50
8422;DHT22;4248;48.196;10.924;2023-04-08T03:31:00;5.00;48.30
8422;DHT22;4248;48.196;10.924;2023-04-08T03:33:26;5.10;48.40
8422;DHT22;4248;48.196;10.924;2023-04-08T03:35:53;5.10;48.40
8422;DHT22;4248;48.196;10.924;2023-04-08T03:38:19;5.10;48.40
8422;DHT22;4248;48.196;10.924;2023-04-08T03:40:44;5.20;48.60
8422;DHT22;4248;48.196;10.924;2023-04-08T03:43:10;5.30;48.60
8422;DHT22;4248;48.196;10.924;2023-04-08T03:45:36;5.40;48.70
8422;DHT22;4248;48.196;10.924;2023-04-08T03:48:02;5.50;48.80
8422;DHT22;4248;48.196;10.924;2023-04-08T03:50:28;5.60;48.30
8422;DHT22;4248;48.196;10.924;2023-04-08T03:52:54;5.70;47.80
8422;DHT22;4248;48.196;10.924;2023-04-08T03:55:19;5.80;47.50
8422;DHT22;4248;48.196;10.924;2023-04-08T03:57:45;5.90;47.50
8422;DHT22;4248;48.196;10.924;2023-04-08T04:00:11;6.00;47.40
8422;DHT22;4248;48.196;10.924;2023-04-08T04:02:37;6.00;47.30
8422;DHT22;4248;48.196;10.924;2023-04-08T04:05:02;6.10;47.30
8422;DHT22;4248;48.196;10.924;2023-04-08T04:07:28;6.20;47.40
8422;DHT22;4248;48.196;10.924;2023-04-08T04:09:54;6.20;47.40
8422;DHT22;4248;48.196;10.924;2023-04-08T04:12:21;6.30;47.50
8422;DHT22;4248;48.196;10.924;2023-04-08T04:14:47;6.40;47.30
8422;DHT22;4248;48.196;10.924;2023-04-08T04:17:13;6.50;47.40
8422;DHT22;4248;48.196;10.924;2023-04-08T04:19:38;6.50;47.20
8422;DHT22;4248;48.196;10.924;2023-04-08T04:22:04;6.50;47.20
8422;DHT22;4248;48.196;10.924;2023-04-08T04:24:29;6.50;47.40
8422;DHT22;4248;48.196;10.924;2023-04-08T04:26:55;6.60;47.50
8422;DHT22;4248;48.196;10.924;2023-04-08T04:29:21;6.60;47.70
8422;DHT22;4248;48.196;10.924;2023-04-08T04:31:46;6.60;47.70
8422;DHT22;4248;48.196;10.924;2023-04-08T04:34:12;6.70;47.90
8422;DHT22;4248;48.196;10.924;2023-04-08T04:36:37;6.70;47.90
8422;DHT22;4248;48.196;10.924;2023-04-08T04:39:03;6.80;48.00
8422;DHT22;4248;48.196;10.924;2023-04-08T04:41:28;6.80;47.90
8422;DHT22;4248;48.196;10.924;2023-04-08T04:43:54;6.80;48.00
8422;DHT22;4248;48.196;10.924;2023-04-08T04:46:20;6.80;48.20
8422;DHT22;4248;48.196;10.924;2023-04-08T04:48:45;6.90;48.20
8422;DHT22;4248;48.196;10.924;2023-04-08T04:51:11;6.90;48.30
8422;DHT22;4248;48.196;10.924;2023-04-08T04:53:37;6.90;48.30
8422;DHT22;4248;48.196;10.924;2023-04-08T04:56:02;6.90;48.30
8422;DHT22;4248;48.196;10.924;2023-04-08T04:58:28;7.00;48.40
8422;DHT22;4248;48.196;10.924;2023-04-08T05:00:55;7.00;48.30
8422;DHT22;4248;48.196;10.924;2023-04-08T05:03:21;7.00;48.30
8422;DHT22;4248;48.196;10.924;2023-04-08T05:05:50;7.00;48.50
8422;DHT22;4248;48.196;10.924;2023-04-08T05:08:16;7.10;48.40
8422;DHT22;4248;48.196;10.924;2023-04-08T05:10:42;7.10;48.40
8422;DHT22;4248;48.196;10.924;2023-04-08T05:13:07;7.20;48.40
8422;DHT22;4248;48.196;10.924;2023-04-08T05:15:33;7.20;48.30
8422;DHT22;4248;48.196;10.924;2023-04-08T05:17:59;7.30;48.40
8422;DHT22;4248;48.196;10.924;2023-04-08T05:20:24;7.30;48.40
8422;DHT22;4248;48.196;10.924;2023-04-08T05:22:50;7.40;48.40
8422;DHT22;4248;48.196;10.924;2023-04-08T05:25:16;7.40;48.50
8422;DHT22;4248;48.196;10.924;2023-04-08T05:27:41;7.40;48.60
8422;DHT22;4248;48.196;10.924;2023-04-08T05:30:07;7.50;48.60
8422;DHT22;4248;48.196;10.924;2023-04-08T05:32:34;7.50;48.50
8422;DHT22;4248;48.196;10.924;2023-04-08T05:35:04;7.60;48.30
8422;DHT22;4248;48.196;10.924;2023-04-08T05:37:30;7.60;48.10
8422;DHT22;4248;48.196;10.924;2023-04-08T05:39:55;7.60;48.30
8422;DHT22;4248;48.196;10.924;2023-04-08T05:42:21;7.60;48.40
8422;DHT22;4248;48.196;10.924;2023-04-08T05:44:47;7.70;48.40
8422;DHT22;4248;48.196;10.924;2023-04-08T05:47:12;7.80;48.40
8422;DHT22;4248;48.196;10.924;2023-04-08T05:49:39;7.80;48.30
8422;DHT22;4248;48.196;10.924;2023-04-08T05:52:05;7.90;48.30
8422;DHT22;4248;48.196;10.924;2023-04-08T05:54:31;8.00;48.40
8422;DHT22;4248;48.196;10.924;2023-04-08T05:56:57;8.00;48.40
8422;DHT22;4248;48.196;10.924;2023-04-08T05:59:22;7.90;48.80
8422;DHT22;4248;48.196;10.924;2023-04-08T06:01:48;8.00;49.10
8422;DHT22;4248;48.196;10.924;2023-04-08T06:04:13;7.90;49.40
8422;DHT22;4248;48.196;10.924;2023-04-08T06:06:41;8.00;49.50
8422;DHT22;4248;48.196;10.924;2023-04-08T06:09:07;8.00;49.40
8422;DHT22;4248;48.196;10.924;2023-04-08T06:11:34;8.20;49.00
8422;DHT22;4248;48.196;10.924;2023-04-08T06:14:00;8.30;48.80
8422;DHT22;4248;48.196;10.924;2023-04-08T06:16:25;8.50;48.50
8422;DHT22;4248;48.196;10.924;2023-04-08T06:18:51;8.50;48.50
8422;DHT22;4248;48.196;10.924;2023-04-08T06:21:17;8.60;48.50
8422;DHT22;4248;48.196;10.924;2023-04-08T06:23:43;8.70;48.20
8422;DHT22;4248;48.196;10.924;2023-04-08T06:26:08;8.80;48.20
8422;DHT22;4248;48.196;10.924;2023-04-08T06:28:34;8.90;48.20
8422;DHT22;4248;48.196;10.924;2023-04-08T06:31:00;9.20;48.00
8422;DHT22;4248;48.196;10.924;2023-04-08T06:33:25;9.00;48.00
8422;DHT22;4248;48.196;10.924;2023-04-08T06:35:51;9.00;48.60
8422;DHT22;4248;48.196;10.924;2023-04-08T06:38:17;8.80;49.10
8422;DHT22;4248;48.196;10.924;2023-04-08T06:40:42;8.70;49.40
8422;DHT22;4248;48.196;10.924;2023-04-08T06:43:08;8.60;51.00
8422;DHT22;4248;48.196;10.924;2023-04-08T06:45:34;8.50;51.30
8422;DHT22;4248;48.196;10.924;2023-04-08T06:48:00;8.40;51.20
8422;DHT22;4248;48.196;10.924;2023-04-08T06:50:26;8.30;52.00
8422;DHT22;4248;48.196;10.924;2023-04-08T06:52:51;8.20;53.70
8422;DHT22;4248;48.196;10.924;2023-04-08T06:55:17;8.20;54.30
8422;DHT22;4248;48.196;10.924;2023-04-08T06:57:42;8.30;53.80
8422;DHT22;4248;48.196;10.924;2023-04-08T07:00:08;8.50;54.60
8422;DHT22;4248;48.196;10.924;2023-04-08T07:02:34;8.50;53.40
8422;DHT22;4248;48.196;10.924;2023-04-08T07:05:00;8.60;52.90
8422;DHT22;4248;48.196;10.924;2023-04-08T07:07:25;8.60;52.40
8422;DHT22;4248;48.196;10.924;2023-04-08T07:09:51;8.70;52.20
8422;DHT22;4248;48.196;10.924;2023-04-08T07:12:17;8.70;51.70
8422;DHT22;4248;48.196;10.924;2023-04-08T07:14:42;8.60;52.00
8422;DHT22;4248;48.196;10.924;2023-04-08T07:17:08;8.70;51.60
8422;DHT22;4248;48.196;10.924;2023-04-08T07:19:34;8.60;51.40
8422;DHT22;4248;48.196;10.924;2023-04-08T07:22:00;8.40;51.20
8422;DHT22;4248;48.196;10.924;2023-04-08T07:24:26;8.40;51.20
8422;DHT22;4248;48.196;10.924;2023-04-08T07:26:51;8.30;51.20
8422;DHT22;4248;48.196;10.924;2023-04-08T07:29:17;8.50;50.90
8422;DHT22;4248;48.196;10.924;2023-04-08T07:31:43;8.60;49.90
8422;DHT22;4248;48.196;10.924;2023-04-08T07:34:09;8.70;49.00
8422;DHT22;4248;48.196;10.924;2023-04-08T07:36:35;8.80;48.10
8422;DHT22;4248;48.196;10.924;2023-04-08T07:39:00;8.80;47.20
8422;DHT22;4248;48.196;10.924;2023-04-08T07:41:26;8.70;46.10
8422;DHT22;4248;48.196;10.924;2023-04-08T07:43:52;8.60;46.20
8422;DHT22;4248;48.196;10.924;2023-04-08T07:46:18;8.70;45.20
8422;DHT22;4248;48.196;10.924;2023-04-08T07:48:45;8.60;43.80
8422;DHT22;4248;48.196;10.924;2023-04-08T07:51:11;8.70;43.60
8422;DHT22;4248;48.196;10.924;2023-04-08T07:53:37;8.80;42.70
8422;DHT22;4248;48.196;10.924;2023-04-08T07:56:08;8.80;41.90
8422;DHT22;4248;48.196;10.924;2023-04-08T07:58:34;9.00;41.80
8422;DHT22;4248;48.196;10.924;2023-04-08T08:01:00;9.00;41.10
8422;DHT22;4248;48.196;10.924;2023-04-08T08:03:25;8.80;39.80
8422;DHT22;4248;48.196;10.924;2023-04-08T08:05:51;8.90;39.70
8422;DHT22;4248;48.196;10.924;2023-04-08T08:08:17;8.90;39.40
8422;DHT22;4248;48.196;10.924;2023-04-08T08:10:42;9.00;39.20
8422;DHT22;4248;48.196;10.924;2023-04-08T08:13:08;9.20;38.70
8422;DHT22;4248;48.196;10.924;2023-04-08T08:15:34;9.20;37.70
8422;DHT22;4248;48.196;10.924;2023-04-08T08:17:59;9.10;35.70
8422;DHT22;4248;48.196;10.924;2023-04-08T08:20:25;9.10;35.80
8422;DHT22;4248;48.196;10.924;2023-04-08T08:22:51;9.40;35.50
8422;DHT22;4248;48.196;10.924;2023-04-08T08:25:17;9.50;34.10
8422;DHT22;4248;48.196;10.924;2023-04-08T08:27:43;9.50;33.30
8422;DHT22;4248;48.196;10.924;2023-04-08T08:30:09;9.60;33.60
8422;DHT22;4248;48.196;10.924;2023-04-08T08:32:35;9.70;32.40
8422;DHT22;4248;48.196;10.924;2023-04-08T08:35:01;9.80;32.70
8422;DHT22;4248;48.196;10.924;2023-04-08T08:37:27;9.70;31.70
8422;DHT22;4248;48.196;10.924;2023-04-08T08:39:53;9.90;32.20
8422;DHT22;4248;48.196;10.924;2023-04-08T08:42:19;9.80;31.00
8422;DHT22;4248;48.196;10.924;2023-04-08T08:44:46;9.80;30.60
8422;DHT22;4248;48.196;10.924;2023-04-08T08:47:12;9.80;30.40
8422;DHT22;4248;48.196;10.924;2023-04-08T08:49:38;9.70;30.30
8422;DHT22;4248;48.196;10.924;2023-04-08T08:52:03;9.70;29.90
8422;DHT22;4248;48.196;10.924;2023-04-08T08:54:31;9.70;29.80
8422;DHT22;4248;48.196;10.924;2023-04-08T08:56:56;9.70;29.70
8422;DHT22;4248;48.196;10.924;2023-04-08T08:59:22;9.60;29.60
8422;DHT22;4248;48.196;10.924;2023-04-08T09:01:48;9.60;29.00
8422;DHT22;4248;48.196;10.924;2023-04-08T09:04:17;9.50;29.30
8422;DHT22;4248;48.196;10.924;2023-04-08T09:06:45;9.50;29.40
8422;DHT22;4248;48.196;10.924;2023-04-08T09:09:12;9.10;28.30
8422;DHT22;4248;48.196;10.924;2023-04-08T09:11:43;8.80;28.60
8422;DHT22;4248;48.196;10.924;2023-04-08T09:16:43;8.50;28.80
8422;DHT22;4248;48.196;10.924;2023-04-08T09:19:10;8.30;29.00
8422;DHT22;4248;48.196;10.924;2023-04-08T09:21:36;8.20;29.30
8422;DHT22;4248;48.196;10.924;2023-04-08T09:24:02;8.40;29.60
8422;DHT22;4248;48.196;10.924;2023-04-08T09:26:28;8.40;29.70
8422;DHT22;4248;48.196;10.924;2023-04-08T09:29:07;8.30;30.00
8422;DHT22;4248;48.196;10.924;2023-04-08T09:31:35;8.30;30.60
8422;DHT22;4248;48.196;10.924;2023-04-08T09:34:15;8.30;30.50
8422;DHT22;4248;48.196;10.924;2023-04-08T09:36:42;8.40;30.70
8422;DHT22;4248;48.196;10.924;2023-04-08T09:39:12;8.30;31.70
8422;DHT22;4248;48.196;10.924;2023-04-08T09:41:38;8.10;32.40
8422;DHT22;4248;48.196;10.924;2023-04-08T09:44:11;8.00;33.10
8422;DHT22;4248;48.196;10.924;2023-04-08T09:51:56;8.10;33.90
8422;DHT22;4248;48.196;10.924;2023-04-08T09:57:17;8.10;34.30
8422;DHT22;4248;48.196;10.924;2023-04-08T09:59:51;7.90;34.90
8422;DHT22;4248;48.196;10.924;2023-04-08T10:02:24;7.90;35.30
8422;DHT22;4248;48.196;10.924;2023-04-08T10:04:54;7.90;35.60
8422;DHT22;4248;48.196;10.924;2023-04-08T10:07:22;7.90;36.00
8422;DHT22;4248;48.196;10.924;2023-04-08T10:09:48;7.90;36.10
8422;DHT22;4248;48.196;10.924;2023-04-08T10:12:14;7.90;36.40
8422;DHT22;4248;48.196;10.924;2023-04-08T10:14:40;8.10;36.10
8422;DHT22;4248;48.196;10.924;2023-04-08T10:17:24;8.10;37.20
8422;DHT22;4248;48.196;10.924;2023-04-08T10:19:51;8.30;35.80
8422;DHT22;4248;48.196;10.924;2023-04-08T10:25:28;8.70;34.90
8422;DHT22;4248;48.196;10.924;2023-04-08T10:27:55;8.90;34.70
8422;DHT22;4248;48.196;10.924;2023-04-08T10:32:55;9.20;34.40
8422;DHT22;4248;48.196;10.924;2023-04-08T10:35:35;9.40;34.80
8422;DHT22;4248;48.196;10.924;2023-04-08T10:38:01;9.50;34.60
8422;DHT22;4248;48.196;10.924;2023-04-08T10:40:28;9.70;33.90
8422;DHT22;4248;48.196;10.924;2023-04-08T10:42:57;9.90;33.40
8422;DHT22;4248;48.196;10.924;2023-04-08T10:45:23;10.10;32.00
8422;DHT22;4248;48.196;10.924;2023-04-08T10:47:49;10.10;31.80
8422;DHT22;4248;48.196;10.924;2023-04-08T10:50:16;10.30;31.70
8422;DHT22;4248;48.196;10.924;2023-04-08T10:52:52;10.50;31.10
8422;DHT22;4248;48.196;10.924;2023-04-08T10:55:23;10.60;30.70
8422;DHT22;4248;48.196;10.924;2023-04-08T10:57:49;10.60;30.40
8422;DHT22;4248;48.196;10.924;2023-04-08T11:00:31;10.90;30.10
8422;DHT22;4248;48.196;10.924;2023-04-08T11:03:07;11.10;29.90
8422;DHT22;4248;48.196;10.924;2023-04-08T11:05:33;11.50;29.20
8422;DHT22;4248;48.196;10.924;2023-04-08T11:07:59;11.60;28.60
8422;DHT22;4248;48.196;10.924;2023-04-08T11:10:28;11.70;28.30
8422;DHT22;4248;48.196;10.924;2023-04-08T11:12:54;11.80;28.30
8422;DHT22;4248;48.196;10.924;2023-04-08T11:15:21;11.70;27.30
8422;DHT22;4248;48.196;10.924;2023-04-08T11:17:47;11.70;27.30
8422;DHT22;4248;48.196;10.924;2023-04-08T11:20:13;11.40;26.30
8422;DHT22;4248;48.196;10.924;2023-04-08T11:22:39;11.40;27.10
8422;DHT22;4248;48.196;10.924;2023-04-08T11:25:07;11.40;27.10
8422;DHT22;4248;48.196;10.924;2023-04-08T11:27:34;11.10;25.10
8422;DHT22;4248;48.196;10.924;2023-04-08T11:30:01;11.00;26.10
8422;DHT22;4248;48.196;10.924;2023-04-08T11:32:27;10.90;26.70
8422;DHT22;4248;48.196;10.924;2023-04-08T11:34:57;11.00;26.80
8422;DHT22;4248;48.196;10.924;2023-04-08T11:37:25;10.70;25.90
8422;DHT22;4248;48.196;10.924;2023-04-08T11:39:53;10.50;26.40
8422;DHT22;4248;48.196;10.924;2023-04-08T11:42:31;10.50;26.50
8422;DHT22;4248;48.196;10.924;2023-04-08T11:44:58;10.40;26.40
8422;DHT22;4248;48.196;10.924;2023-04-08T11:47:33;10.30;26.30
8422;DHT22;4248;48.196;10.924;2023-04-08T11:49:59;10.20;26.20
8422;DHT22;4248;48.196;10.924;2023-04-08T11:52:45;10.20;26.20
8422;DHT22;4248;48.196;10.924;2023-04-08T11:55:21;10.30;26.20
8422;DHT22;4248;48.196;10.924;2023-04-08T11:57:47;10.40;26.40
8422;DHT22;4248;48.196;10.924;2023-04-08T12:00:12;10.20;25.80
8422;DHT22;4248;48.196;10.924;2023-04-08T12:02:39;10.10;26.20
8422;DHT22;4248;48.196;10.924;2023-04-08T12:05:05;10.20;26.20
8422;DHT22;4248;48.196;10.924;2023-04-08T12:07:31;10.40;26.20
8422;DHT22;4248;48.196;10.924;2023-04-08T12:09:57;10.40;26.20
8422;DHT22;4248;48.196;10.924;2023-04-08T12:12:22;10.40;26.30
8422;DHT22;4248;48.196;10.924;2023-04-08T12:14:48;10.20;26.20
8422;DHT22;4248;48.196;10.924;2023-04-08T12:17:14;10.00;25.20
8422;DHT22;4248;48.196;10.924;2023-04-08T12:19:40;9.90;26.30
8422;DHT22;4248;48.196;10.924;2023-04-08T12:22:05;9.90;26.80
8422;DHT22;4248;48.196;10.924;2023-04-08T12:24:31;9.70;26.70
8422;DHT22;4248;48.196;10.924;2023-04-08T12:26:57;9.60;26.60
8422;DHT22;4248;48.196;10.924;2023-04-08T12:29:23;9.20;26.30
8422;DHT22;4248;48.196;10.924;2023-04-08T12:31:49;9.10;26.70
8422;DHT22;4248;48.196;10.924;2023-04-08T12:34:14;9.00;27.00
8422;DHT22;4248;48.196;10.924;2023-04-08T12:36:41;9.00;27.00
8422;DHT22;4248;48.196;10.924;2023-04-08T12:39:07;9.00;27.20
8422;DHT22;4248;48.196;10.924;2023-04-08T12:41:32;9.00;27.20
8422;DHT22;4248;48.196;10.924;2023-04-08T12:43:58;9.00;27.30
8422;DHT22;4248;48.196;10.924;2023-04-08T12:46:23;8.90;27.40
8422;DHT22;4248;48.196;10.924;2023-04-08T12:48:49;8.80;27.60
8422;DHT22;4248;48.196;10.924;2023-04-08T12:51:15;8.70;27.80
8422;DHT22;4248;48.196;10.924;2023-04-08T12:53:40;8.70;28.10
8422;DHT22;4248;48.196;10.924;2023-04-08T12:56:06;8.60;28.20
8422;DHT22;4248;48.196;10.924;2023-04-08T12:58:31;8.50;28.30
8422;DHT22;4248;48.196;10.924;2023-04-08T13:00:57;8.60;28.60
8422;DHT22;4248;48.196;10.924;2023-04-08T13:03:22;8.50;28.60
8422;DHT22;4248;48.196;10.924;2023-04-08T13:05:48;8.50;28.90
8422;DHT22;4248;48.196;10.924;2023-04-08T13:08:14;8.40;29.10
8422;DHT22;4248;48.196;10.924;2023-04-08T13:10:41;8.30;29.10
8422;DHT22;4248;48.196;10.924;2023-04-08T13:13:07;8.30;29.30
8422;DHT22;4248;48.196;10.924;2023-04-08T13:15:33;8.20;29.70
8422;DHT22;4248;48.196;10.924;2023-04-08T13:17:58;8.00;30.10
8422;DHT22;4248;48.196;10.924;2023-04-08T13:20:24;8.00;30.80
8422;DHT22;4248;48.196;10.924;2023-04-08T13:22:51;8.00;30.70
8422;DHT22;4248;48.196;10.924;2023-04-08T13:25:17;8.00;30.90
8422;DHT22;4248;48.196;10.924;2023-04-08T13:27:43;8.00;31.70
8422;DHT22;4248;48.196;10.924;2023-04-08T13:30:09;8.10;31.60
8422;DHT22;4248;48.196;10.924;2023-04-08T13:32:34;8.10;31.50
8422;DHT22;4248;48.196;10.924;2023-04-08T13:35:01;8.10;32.20
8422;DHT22;4248;48.196;10.924;2023-04-08T13:37:26;8.10;32.40
8422;DHT22;4248;48.196;10.924;2023-04-08T13:39:52;8.00;32.70
8422;DHT22;4248;48.196;10.924;2023-04-08T13:42:18;8.00;32.90
8422;DHT22;4248;48.196;10.924;2023-04-08T13:44:44;7.90;33.30
8422;DHT22;4248;48.196;10.924;2023-04-08T13:47:10;8.00;33.70
8422;DHT22;4248;48.196;10.924;2023-04-08T13:49:36;7.90;33.80
8422;DHT22;4248;48.196;10.924;2023-04-08T13:52:01;7.90;34.40
8422;DHT22;4248;48.196;10.924;2023-04-08T13:54:27;8.00;33.80
8422;DHT22;4248;48.196;10.924;2023-04-08T13:56:52;8.00;33.80
8422;DHT22;4248;48.196;10.924;2023-04-08T13:59:18;8.10;34.10
8422;DHT22;4248;48.196;10.924;2023-04-08T14:01:44;8.00;34.40
8422;DHT22;4248;48.196;10.924;2023-04-08T14:04:09;8.00;34.40
8422;DHT22;4248;48.196;10.924;2023-04-08T14:06:35;8.00;34.40
8422;DHT22;4248;48.196;10.924;2023-04-08T14:09:01;7.80;34.80
8422;DHT22;4248;48.196;10.924;2023-04-08T14:11:26;7.60;35.40
8422;DHT22;4248;48.196;10.924;2023-04-08T14:13:52;7.50;36.20
8422;DHT22;4248;48.196;10.924;2023-04-08T14:16:17;7.60;37.40
8422;DHT22;4248;48.196;10.924;2023-04-08T14:18:44;7.60;35.90
8422;DHT22;4248;48.196;10.924;2023-04-08T14:21:09;7.60;36.70
8422;DHT22;4248;48.196;10.924;2023-04-08T14:23:37;7.40;37.20
8422;DHT22;4248;48.196;10.924;2023-04-08T14:26:02;7.30;37.50
8422;DHT22;4248;48.196;10.924;2023-04-08T14:28:28;7.40;37.20
8422;DHT22;4248;48.196;10.924;2023-04-08T14:30:54;7.30;38.60
8422;DHT22;4248;48.196;10.924;2023-04-08T14:33:20;7.40;38.30
8422;DHT22;4248;48.196;10.924;2023-04-08T14:35:45;7.30;38.80
8422;DHT22;4248;48.196;10.924;2023-04-08T14:38:12;7.30;39.30
8422;DHT22;4248;48.196;10.924;2023-04-08T14:40:37;7.30;39.80
8422;DHT22;4248;48.196;10.924;2023-04-08T14:43:03;7.30;39.20
8422;DHT22;4248;48.196;10.924;2023-04-08T14:45:29;7.40;38.80
8422;DHT22;4248;48.196;10.924;2023-04-08T14:47:55;7.40;38.80
8422;DHT22;4248;48.196;10.924;2023-04-08T14:50:21;7.40;38.60
8422;DHT22;4248;48.196;10.924;2023-04-08T14:52:46;7.50;38.40
8422;DHT22;4248;48.196;10.924;2023-04-08T14:55:13;7.50;38.30
8422;DHT22;4248;48.196;10.924;2023-04-08T14:57:39;7.40;38.80
8422;DHT22;4248;48.196;10.924;2023-04-08T15:00:05;7.30;38.90
8422;DHT22;4248;48.196;10.924;2023-04-08T15:02:32;7.30;39.20
8422;DHT22;4248;48.196;10.924;2023-04-08T15:04:58;7.30;39.30
8422;DHT22;4248;48.196;10.924;2023-04-08T15:07:24;7.30;39.70
8422;DHT22;4248;48.196;10.924;2023-04-08T15:09:50;7.30;39.40
8422;DHT22;4248;48.196;10.924;2023-04-08T15:12:16;7.40;39.50
8422;DHT22;4248;48.196;10.924;2023-04-08T15:14:41;7.40;39.50
8422;DHT22;4248;48.196;10.924;2023-04-08T15:17:07;7.30;40.80
8422;DHT22;4248;48.196;10.924;2023-04-08T15:19:34;7.30;39.80
8422;DHT22;4248;48.196;10.924;2023-04-08T15:22:00;7.20;40.00
8422;DHT22;4248;48.196;10.924;2023-04-08T15:24:25;7.30;39.80
8422;DHT22;4248;48.196;10.924;2023-04-08T15:26:51;7.30;40.00
8422;DHT22;4248;48.196;10.924;2023-04-08T15:29:17;7.20;40.20
8422;DHT22;4248;48.196;10.924;2023-04-08T15:31:42;7.20;40.40
8422;DHT22;4248;48.196;10.924;2023-04-08T15:34:08;7.10;40.40
8422;DHT22;4248;48.196;10.924;2023-04-08T15:36:33;7.10;40.50
8422;DHT22;4248;48.196;10.924;2023-04-08T15:39:01;7.10;40.50
8422;DHT22;4248;48.196;10.924;2023-04-08T15:41:27;7.10;40.40
8422;DHT22;4248;48.196;10.924;2023-04-08T15:43:54;7.20;40.20
8422;DHT22;4248;48.196;10.924;2023-04-08T15:46:20;7.20;40.40
8422;DHT22;4248;48.196;10.924;2023-04-08T15:48:46;7.20;40.60
8422;DHT22;4248;48.196;10.924;2023-04-08T15:51:12;7.10;41.10
8422;DHT22;4248;48.196;10.924;2023-04-08T15:53:40;7.10;41.30
8422;DHT22;4248;48.196;10.924;2023-04-08T15:56:14;7.10;41.00
8422;DHT22;4248;48.196;10.924;2023-04-08T15:58:43;7.20;41.10
8422;DHT22;4248;48.196;10.924;2023-04-08T16:01:10;7.20;41.10
8422;DHT22;4248;48.196;10.924;2023-04-08T16:03:36;7.30;40.90
8422;DHT22;4248;48.196;10.924;2023-04-08T16:06:02;7.40;40.80
8422;DHT22;4248;48.196;10.924;2023-04-08T16:08:28;7.40;40.80
8422;DHT22;4248;48.196;10.924;2023-04-08T16:11:02;7.40;40.70
8422;DHT22;4248;48.196;10.924;2023-04-08T16:13:28;7.50;40.70
8422;DHT22;4248;48.196;10.924;2023-04-08T16:15:55;7.50;40.50
8422;DHT22;4248;48.196;10.924;2023-04-08T16:18:20;7.50;40.60